Time;durP1;ratioP1;P1;durP2;ratioP2;P2;SDS_P1;SDS_P2;PMS_P1;PMS_P2;Temp;Humidity;BMP_temperature;BMP_pressure;BME280_temperature;BME280_humidity;BME280_pressure;Samples;Min_cycle;Max_cycle;Signal;HPM_P1;HPM_P2
2022/06/28 00:00:20;;;;;;;8.57;5.38;;;;;;;16.28;76.07;93739.34;5072119;28;20108;-47
2022/06/28 00:02:46;;;;;;;5.05;4.55;;;;;;;16.26;75.64;93738.47;5072343;28;20020;-45
2022/06/28 00:05:11;;;;;;;8.05;5.22;;;;;;;16.32;75.30;93750.81;5072384;28;20028;-46
2022/06/28 00:07:37;;;;;;;8.48;5.70;;;;;;;16.10;76.23;93749.06;5072321;28;20024;-44
2022/06/28 00:10:04;;;;;;;10.15;5.65;;;;;;;16.22;76.02;93747.22;5071823;28;20024;-45
2022/06/28 00:12:29;;;;;;;7.55;5.30;;;;;;;16.15;75.85;93742.50;5072258;28;20515;-45
2022/06/28 00:17:40;;;;;;;7.35;5.10;;;;;;;15.92;76.37;93744.84;5070673;28;20704;-46
2022/06/28 00:20:06;;;;;;;12.25;5.47;;;;;;;16.10;75.95;93748.34;5072056;28;20099;-45
2022/06/28 00:22:31;;;;;;;12.60;5.57;;;;;;;15.88;76.12;93748.06;5071617;28;20586;-44
2022/06/28 00:24:56;;;;;;;8.55;5.35;;;;;;;16.03;75.83;93749.16;5072006;28;20501;-44
2022/06/28 00:27:22;;;;;;;7.78;5.18;;;;;;;16.06;75.83;93742.44;5071639;28;20429;-46
2022/06/28 00:29:47;;;;;;;5.90;5.32;;;;;;;15.79;76.84;93740.38;5071566;28;20028;-43
2022/06/28 00:32:13;;;;;;;5.72;5.22;;;;;;;15.85;77.24;93740.84;5071498;28;20013;-45
2022/06/28 00:34:38;;;;;;;7.10;5.68;;;;;;;15.83;77.25;93739.97;5071533;28;20020;-46
2022/06/28 00:37:04;;;;;;;13.93;5.45;;;;;;;15.90;77.52;93739.88;5071749;28;20017;-45
2022/06/28 00:39:30;;;;;;;9.07;6.22;;;;;;;15.90;77.32;93737.09;5071433;28;20086;-48
2022/06/28 00:41:55;;;;;;;7.00;5.10;;;;;;;15.97;76.75;93741.06;5071231;28;20072;-45
2022/06/28 00:44:22;;;;;;;6.75;5.03;;;;;;;15.94;76.37;93726.25;5053412;28;20107;-45
2022/06/28 00:46:48;;;;;;;5.55;4.88;;;;;;;16.05;76.32;93741.00;5071618;28;20476;-45
2022/06/28 00:49:14;;;;;;;7.45;4.88;;;;;;;16.10;76.50;93740.72;5071536;28;20016;-45
2022/06/28 00:51:39;;;;;;;7.53;5.78;;;;;;;16.19;75.73;93737.25;5071511;28;20016;-44
2022/06/28 00:54:05;;;;;;;6.40;5.63;;;;;;;15.97;76.98;93749.44;5070127;28;20497;-48
2022/06/28 00:56:31;;;;;;;8.57;5.57;;;;;;;15.87;77.20;93743.78;5070926;28;20413;-44
2022/06/28 00:58:57;;;;;;;5.95;5.35;;;;;;;15.74;77.46;93740.66;5071044;28;20027;-45
2022/06/28 01:01:26;;;;;;;7.68;5.20;;;;;;;15.98;76.12;93736.25;5071216;28;20032;-44
2022/06/28 01:03:53;;;;;;;7.15;5.35;;;;;;;15.74;76.42;93729.50;5070990;28;20025;-44
2022/06/28 01:06:18;;;;;;;10.18;4.93;;;;;;;15.65;76.83;93736.47;5070449;28;20034;-44
2022/06/28 01:08:47;;;;;;;9.18;5.32;;;;;;;15.67;76.52;93736.66;5070698;28;20471;-48
2022/06/28 01:11:20;;;;;;;5.75;5.05;;;;;;;15.75;76.19;93736.53;5070668;28;20045;-46
2022/06/28 01:13:51;;;;;;;6.28;5.13;;;;;;;15.74;76.35;93735.06;5070976;28;20024;-46
2022/06/28 01:16:18;;;;;;;5.57;5.07;;;;;;;15.81;76.36;93739.78;5070715;28;20025;-45
2022/06/28 01:18:43;;;;;;;10.07;5.60;;;;;;;15.72;76.92;93738.41;5070450;28;20024;-45
2022/06/28 01:21:12;;;;;;;7.15;4.60;;;;;;;15.78;75.93;93730.56;5052745;28;20055;-45
2022/06/28 01:23:37;;;;;;;10.50;4.95;;;;;;;15.74;76.22;93733.00;5070618;28;20056;-46
2022/06/28 01:26:03;;;;;;;11.43;5.22;;;;;;;15.65;76.68;93735.75;5053032;28;20067;-45
2022/06/28 01:28:28;;;;;;;8.30;5.45;;;;;;;15.55;77.22;93735.66;5052705;28;20025;-44
2022/06/28 01:30:54;;;;;;;9.63;5.40;;;;;;;15.62;77.16;93728.53;5051818;28;20027;-45
2022/06/28 01:33:19;;;;;;;9.27;5.88;;;;;;;15.48;77.61;93739.28;5052324;28;20039;-44
2022/06/28 01:35:45;;;;;;;8.82;5.80;;;;;;;15.43;77.39;93723.56;5052936;28;20103;-45
2022/06/28 01:38:10;;;;;;;8.23;5.20;;;;;;;15.45;77.45;93725.78;5070401;28;20397;-47
2022/06/28 01:40:36;;;;;;;8.55;5.28;;;;;;;15.55;76.59;93721.03;5052756;28;20024;-44
2022/06/28 01:43:02;;;;;;;11.20;4.80;;;;;;;15.71;75.95;93730.66;5035917;28;20448;-48
2022/06/28 01:45:28;;;;;;;7.57;4.47;;;;;;;15.67;75.57;93728.28;5070598;28;20020;-45
2022/06/28 01:47:54;;;;;;;7.47;4.60;;;;;;;15.39;76.15;93725.25;5070541;28;20021;-46
2022/06/28 01:50:20;;;;;;;11.45;5.38;;;;;;;15.48;75.90;93724.63;5070308;28;20066;-46
2022/06/28 01:52:45;;;;;;;9.07;5.10;;;;;;;15.40;75.77;93729.53;5070482;28;20073;-45
2022/06/28 01:55:11;;;;;;;6.78;4.93;;;;;;;15.39;76.12;93731.56;5070506;28;20494;-50
2022/06/28 01:57:38;;;;;;;10.35;5.20;;;;;;;15.32;76.12;93729.59;5070471;28;20028;-46
2022/06/28 02:00:04;;;;;;;6.20;4.78;;;;;;;15.32;76.24;93728.84;5070444;28;20028;-45
2022/06/28 02:02:29;;;;;;;7.18;4.88;;;;;;;15.27;76.29;93730.56;5069982;28;20059;-46
2022/06/28 02:04:55;;;;;;;5.82;4.63;;;;;;;15.38;76.00;93729.34;5069182;28;20052;-47
2022/06/28 02:07:20;;;;;;;9.50;5.03;;;;;;;15.19;76.66;93719.53;5069982;28;20025;-44
2022/06/28 02:09:45;;;;;;;6.25;5.38;;;;;;;15.27;76.48;93725.00;5070273;28;20025;-45
2022/06/28 02:12:11;;;;;;;10.23;5.68;;;;;;;14.96;78.06;93732.94;5069968;28;20059;-43
2022/06/28 02:14:36;;;;;;;15.90;6.90;;;;;;;14.77;78.78;93727.19;5069838;28;20076;-47
2022/06/28 02:17:02;;;;;;;13.55;6.32;;;;;;;14.78;78.69;93720.31;5071175;28;20409;-44
2022/06/28 02:19:27;;;;;;;7.97;5.90;;;;;;;14.69;79.28;93720.94;5074102;28;20425;-45
2022/06/28 02:21:53;;;;;;;13.52;5.57;;;;;;;14.85;78.94;93727.88;5074297;28;20162;-46
2022/06/28 02:24:19;;;;;;;7.03;5.43;;;;;;;14.84;78.66;93718.03;5074024;28;20094;-45
2022/06/28 02:26:44;;;;;;;7.53;6.75;;;;;;;14.92;78.12;93715.91;5073806;28;20032;-45
2022/06/28 02:29:10;;;;;;;7.93;5.20;;;;;;;15.01;77.14;93725.66;5073950;28;20024;-45
2022/06/28 02:31:36;;;;;;;6.88;5.10;;;;;;;15.05;76.76;93735.06;5073465;28;20025;-43
2022/06/28 02:34:02;;;;;;;7.13;5.25;;;;;;;14.81;77.75;93727.50;5073873;28;20025;-46
2022/06/28 02:41:53;;;;;;;7.38;5.20;;;;;;;14.92;77.13;93738.16;5074000;28;20068;-44
2022/06/28 02:44:18;;;;;;;9.63;5.10;;;;;;;14.78;77.12;93736.25;5073800;28;20035;-44
2022/06/28 02:46:47;;;;;;;5.40;4.90;;;;;;;14.84;77.04;93733.97;5073883;28;20024;-45
2022/06/28 02:49:13;;;;;;;;;;;;;;;14.73;77.87;93731.66;5074360;28;20036;-45
2022/06/28 02:51:39;;;;;;;8.20;4.50;;;;;;;14.80;77.85;93719.75;5073484;28;19909;-47
2022/06/28 02:54:05;;;;;;;11.60;5.18;;;;;;;14.84;77.13;93729.16;5073382;28;20142;-45
2022/06/28 02:56:30;;;;;;;8.63;4.93;;;;;;;14.67;76.94;93733.94;5073358;28;20144;-47
2022/06/28 02:58:55;;;;;;;8.57;5.53;;;;;;;14.70;76.91;93722.44;5073359;28;20021;-45
2022/06/28 03:01:21;;;;;;;7.45;5.10;;;;;;;14.70;77.50;93721.69;5073231;28;20028;-47
2022/06/28 03:03:46;;;;;;;8.95;5.28;;;;;;;14.53;77.98;93732.78;5073500;28;20442;-47
2022/06/28 03:06:12;;;;;;;8.48;4.80;;;;;;;14.65;77.70;93722.66;5073213;28;20024;-44
2022/06/28 03:08:37;;;;;;;9.90;5.65;;;;;;;14.53;78.05;93738.34;5073283;28;20028;-46
2022/06/28 03:11:03;;;;;;;6.45;5.47;;;;;;;14.43;78.30;93730.63;5072454;28;20036;-47
2022/06/28 03:13:29;;;;;;;8.27;5.65;;;;;;;14.55;78.19;93716.28;5072350;28;20024;-47
2022/06/28 03:15:54;;;;;;;10.60;5.40;;;;;;;14.36;79.08;93727.88;5073319;28;20386;-44
2022/06/28 03:18:20;;;;;;;5.82;5.22;;;;;;;14.44;78.78;93734.13;5073236;28;20024;-44
2022/06/28 03:20:45;;;;;;;12.68;5.88;;;;;;;14.25;79.88;93736.66;5072774;28;20652;-44
2022/06/28 03:23:11;;;;;;;6.60;5.75;;;;;;;14.32;79.41;93735.88;5072928;28;20036;-46
2022/06/28 03:25:37;;;;;;;10.95;5.53;;;;;;;14.21;79.91;93748.16;5072782;28;20115;-45
2022/06/28 03:28:04;;;;;;;10.35;5.50;;;;;;;14.20;79.41;93743.16;5072755;28;20117;-45
2022/06/28 03:30:31;;;;;;;7.47;6.30;;;;;;;14.40;78.94;93745.63;5072395;28;20165;-47
2022/06/28 03:32:57;;;;;;;10.13;5.63;;;;;;;14.48;78.21;93740.03;5072584;28;20024;-46
2022/06/28 03:35:22;;;;;;;12.82;5.70;;;;;;;14.34;79.07;93738.81;5072680;28;20409;-47
2022/06/28 03:37:48;;;;;;;6.53;5.10;;;;;;;14.53;78.47;93724.44;5072935;28;20054;-45
2022/06/28 03:40:13;;;;;;;9.48;5.60;;;;;;;14.39;79.34;93740.66;5072633;28;20563;-44
2022/06/28 03:42:39;;;;;;;10.90;5.72;;;;;;;14.34;80.03;93741.59;5072270;28;20024;-45
2022/06/28 03:45:05;;;;;;;12.15;5.95;;;;;;;14.38;80.39;93739.16;5071772;28;20048;-46
2022/06/28 03:47:30;;;;;;;10.50;5.72;;;;;;;14.44;80.63;93742.47;5072511;28;20025;-44
2022/06/28 03:49:56;;;;;;;6.63;5.80;;;;;;;14.30;81.68;93732.94;5072696;28;20078;-47
2022/06/28 03:52:28;;;;;;;11.30;6.00;;;;;;;14.38;82.12;93733.59;5072399;28;20127;-47
2022/06/28 03:54:57;;;;;;;9.73;5.65;;;;;;;14.44;81.55;93723.75;5072333;28;20441;-46
2022/06/28 03:57:27;;;;;;;7.18;6.10;;;;;;;14.46;81.44;93725.97;5072595;28;20017;-48
2022/06/28 03:59:52;;;;;;;;;;;;;;;14.55;81.63;93744.78;5073090;28;20410;-44
2022/06/28 04:02:18;;;;;;;12.10;6.30;;;;;;;14.40;81.63;93712.28;5054317;28;19924;-46
2022/06/28 04:04:43;;;;;;;7.45;5.68;;;;;;;14.61;81.97;93742.53;5072453;28;20166;-44
2022/06/28 04:07:09;;;;;;;11.25;6.13;;;;;;;14.69;81.52;93743.19;5072028;28;20032;-45
2022/06/28 04:09:34;;;;;;;8.57;6.10;;;;;;;14.64;82.42;93754.53;5072321;28;20059;-46
2022/06/28 04:12:00;;;;;;;7.63;6.25;;;;;;;14.58;83.44;93749.19;5071858;28;20544;-46
2022/06/28 04:14:25;;;;;;;6.05;5.53;;;;;;;14.83;82.33;93749.19;5071923;28;20122;-46
2022/06/28 04:16:51;;;;;;;9.68;6.25;;;;;;;14.96;81.44;93744.06;5071976;28;20020;-46
2022/06/28 04:19:16;;;;;;;14.23;7.45;;;;;;;14.98;81.89;93751.84;5071822;28;20017;-43
2022/06/28 04:21:42;;;;;;;7.97;6.95;;;;;;;15.06;82.00;93758.78;5072003;28;20056;-44
2022/06/28 04:24:07;;;;;;;7.63;6.68;;;;;;;15.17;81.72;93749.97;5071383;28;20063;-45
2022/06/28 04:26:33;;;;;;;14.65;7.60;;;;;;;14.99;82.00;93719.94;5070842;28;20032;-44
2022/06/28 04:28:58;;;;;;;8.57;7.40;;;;;;;14.99;83.77;93747.72;5071684;28;20024;-47
2022/06/28 04:31:24;;;;;;;8.55;7.63;;;;;;;15.12;84.08;93739.06;5071245;28;20024;-46
2022/06/28 04:33:50;;;;;;;7.13;6.28;;;;;;;15.31;83.97;93744.09;5071850;28;20033;-45
2022/06/28 04:36:16;;;;;;;10.95;7.38;;;;;;;15.37;83.84;93722.31;5071464;28;20056;-46
2022/06/28 04:38:41;;;;;;;13.00;6.90;;;;;;;15.46;83.51;93750.25;5071484;28;20105;-44
2022/06/28 04:41:07;;;;;;;8.38;7.05;;;;;;;15.50;84.20;93756.16;5070617;28;20020;-47
2022/06/28 04:43:32;;;;;;;8.82;7.10;;;;;;;15.68;83.53;93754.09;5071227;28;20020;-47
2022/06/28 04:45:59;;;;;;;7.72;6.75;;;;;;;15.73;83.08;93755.88;5053744;28;20021;-47
2022/06/28 04:48:24;;;;;;;7.88;6.85;;;;;;;15.82;82.79;93747.59;5071514;28;20075;-46
2022/06/28 04:50:50;;;;;;;9.15;6.82;;;;;;;15.84;83.16;93758.13;5071486;28;20387;-46
2022/06/28 04:53:16;;;;;;;6.95;6.32;;;;;;;15.94;82.92;93750.56;5071477;28;20021;-45
2022/06/28 04:55:41;;;;;;;6.60;6.00;;;;;;;15.84;82.66;93733.09;5070157;28;20047;-46
2022/06/28 04:58:07;;;;;;;8.07;6.60;;;;;;;16.03;83.04;93766.63;5071377;28;20024;-44
2022/06/28 05:00:32;;;;;;;31.42;9.25;;;;;;;16.14;82.70;93771.66;5070952;28;20040;-45
2022/06/28 05:02:58;;;;;;;8.38;7.47;;;;;;;16.24;83.41;93769.66;5070876;28;20036;-48
2022/06/28 05:05:23;;;;;;;11.35;7.72;;;;;;;16.31;83.26;93762.50;5070969;28;20021;-46
2022/06/28 05:07:49;;;;;;;11.25;7.45;;;;;;;16.39;83.78;93760.38;5071119;28;20021;-47
2022/06/28 05:10:14;;;;;;;7.78;6.75;;;;;;;16.57;84.14;93751.38;5070583;28;20024;-48
2022/06/28 05:12:39;;;;;;;8.88;7.20;;;;;;;16.68;84.05;93755.66;5070732;28;20017;-46
2022/06/28 05:15:06;;;;;;;11.40;7.30;;;;;;;16.73;84.22;93740.00;5070723;28;20106;-47
2022/06/28 05:17:31;;;;;;;15.63;10.95;;;;;;;16.91;83.59;93746.94;5071055;28;20046;-44
2022/06/28 05:19:57;;;;;;;13.13;9.95;;;;;;;16.99;82.84;93733.59;5070610;28;20497;-46
2022/06/28 05:22:22;;;;;;;14.63;9.70;;;;;;;17.16;82.40;93739.81;5070345;28;20053;-45
2022/06/28 05:24:48;;;;;;;8.75;7.65;;;;;;;17.29;81.09;93744.97;5069681;28;20035;-45
2022/06/28 05:27:13;;;;;;;8.68;7.88;;;;;;;17.19;83.22;93744.22;5070839;28;20559;-44
2022/06/28 05:29:39;;;;;;;10.38;8.02;;;;;;;17.30;82.41;93748.50;5070786;28;20017;-47
2022/06/28 05:32:04;;;;;;;8.95;8.05;;;;;;;17.44;81.81;93741.16;5070085;28;20566;-45
2022/06/28 05:34:30;;;;;;;8.48;7.68;;;;;;;17.48;81.79;93738.66;5070698;28;20081;-44
2022/06/28 05:36:55;;;;;;;11.10;6.82;;;;;;;17.65;82.77;93735.03;5070734;28;20023;-45
2022/06/28 05:39:21;;;;;;;9.93;7.38;;;;;;;17.72;82.71;93743.22;5070432;28;20025;-46
2022/06/28 05:41:46;;;;;;;8.38;7.40;;;;;;;17.80;83.55;93743.09;5070558;28;20427;-48
2022/06/28 05:44:13;;;;;;;7.82;6.97;;;;;;;17.96;83.95;93739.38;5070280;28;20020;-45
2022/06/28 05:46:39;;;;;;;10.30;7.38;;;;;;;17.96;83.54;93744.97;5070567;28;20028;-46
2022/06/28 05:49:08;;;;;;;7.60;6.90;;;;;;;18.09;83.24;93746.56;5070564;28;20075;-46
2022/06/28 05:51:34;;;;;;;7.13;6.47;;;;;;;18.03;84.53;93726.59;5068963;28;20531;-45
2022/06/28 05:53:59;;;;;;;16.63;8.18;;;;;;;18.26;84.70;93751.97;5070095;28;20112;-45
2022/06/28 05:56:25;;;;;;;14.63;7.28;;;;;;;18.36;85.34;93751.97;5070490;28;20016;-45
2022/06/28 05:58:50;;;;;;;7.63;6.93;;;;;;;18.43;83.99;93754.56;5070092;28;20082;-45
2022/06/28 06:01:16;;;;;;;7.93;7.13;;;;;;;18.54;83.66;93758.81;5070263;28;20024;-44
2022/06/28 06:03:41;;;;;;;8.02;7.25;;;;;;;18.58;83.57;93759.84;5070111;28;20433;-47
2022/06/28 06:06:07;;;;;;;9.45;8.55;;;;;;;18.70;82.63;93757.91;5070373;28;20082;-48
2022/06/28 06:19:55;;;;;;;7.90;6.75;;;;;;;19.97;75.25;93771.25;5127650;27;20862;-48
2022/06/28 06:22:20;;;;;;;9.50;7.18;;;;;;;19.83;75.09;93762.69;5128686;27;20106;-44
2022/06/28 06:24:46;;;;;;;8.38;6.93;;;;;;;19.87;76.39;93760.13;5128636;27;20019;-46
2022/06/28 06:27:13;;;;;;;8.55;7.13;;;;;;;19.90;76.08;93752.59;5128135;27;20031;-46
2022/06/28 06:29:38;;;;;;;7.70;7.00;;;;;;;20.00;74.93;93759.59;5128548;27;20243;-45
2022/06/28 06:32:04;;;;;;;7.20;6.60;;;;;;;19.99;76.10;93769.31;5128585;27;20027;-45
2022/06/28 06:34:30;;;;;;;7.72;6.70;;;;;;;20.11;77.26;93766.56;5128388;27;20106;-46
2022/06/28 06:36:55;;;;;;;10.27;6.97;;;;;;;20.23;76.35;93761.75;5128458;27;20011;-45
2022/06/28 06:39:21;;;;;;;7.10;6.43;;;;;;;20.39;75.62;93757.91;5128394;27;20033;-45
2022/06/28 06:41:47;;;;;;;7.82;6.22;;;;;;;20.42;74.83;93758.78;5128266;27;20407;-47
2022/06/28 06:44:12;;;;;;;8.25;7.28;;;;;;;20.51;73.96;93757.19;5126356;27;20097;-45
2022/06/28 06:46:38;;;;;;;8.82;6.68;;;;;;;20.66;73.25;93749.03;5128131;27;20050;-49
2022/06/28 06:49:04;;;;;;;7.18;6.45;;;;;;;20.74;73.59;93749.53;5127911;27;20054;-46
2022/06/28 06:51:32;;;;;;;8.10;6.40;;;;;;;20.90;72.60;93744.16;5127785;27;20055;-49
2022/06/28 06:53:58;;;;;;;6.35;5.75;;;;;;;20.97;71.26;93732.69;5128084;27;20457;-47
2022/06/28 06:56:24;;;;;;;11.73;6.57;;;;;;;21.14;70.98;93734.41;5128117;27;20052;-46
2022/06/28 06:58:49;;;;;;;7.95;5.80;;;;;;;21.30;69.05;93737.47;5127668;27;20491;-48
2022/06/28 07:01:15;;;;;;;7.10;6.50;;;;;;;21.35;69.97;93731.47;5127617;27;20015;-47
2022/06/28 07:03:44;;;;;;;6.55;5.95;;;;;;;21.35;69.62;93733.56;5127561;27;20047;-46
2022/06/28 07:06:12;;;;;;;6.85;6.15;;;;;;;21.28;69.21;93726.09;5127828;27;20415;-45
2022/06/28 07:08:38;;;;;;;12.10;6.22;;;;;;;21.31;69.57;93731.22;5126866;27;20023;-47
2022/06/28 07:11:03;;;;;;;7.07;6.38;;;;;;;21.41;69.55;93739.53;5127328;27;20542;-47
2022/06/28 07:13:29;;;;;;;9.70;6.30;;;;;;;21.60;69.42;93727.97;5127440;27;20093;-45
2022/06/28 07:15:55;;;;;;;8.48;5.50;;;;;;;21.84;68.63;93721.72;5127367;27;20248;-50
2022/06/28 07:18:21;;;;;;;6.13;5.63;;;;;;;22.16;66.17;93725.59;5126874;27;20027;-45
2022/06/28 07:20:46;;;;;;;7.95;5.38;;;;;;;22.40;68.15;93729.00;5114159;27;20515;-47
2022/06/28 07:23:12;;;;;;;11.43;5.80;;;;;;;22.82;66.07;93734.16;5113814;28;20023;-46
2022/06/28 07:25:37;;;;;;;6.25;5.65;;;;;;;23.29;63.72;93731.66;5113830;28;20026;-48
2022/06/28 07:28:03;;;;;;;5.57;4.43;;;;;;;23.83;61.48;93726.00;5113435;28;20453;-48
2022/06/28 07:30:28;;;;;;;5.50;5.00;;;;;;;24.51;59.69;93727.88;5113677;28;20100;-50
2022/06/28 07:32:54;;;;;;;7.68;4.75;;;;;;;25.24;58.22;93721.34;5112406;28;20412;-47
2022/06/28 07:35:24;;;;;;;4.93;4.22;;;;;;;26.09;54.84;93719.34;5113446;28;20030;-47
2022/06/28 07:37:50;;;;;;;5.18;3.55;;;;;;;26.81;51.08;93715.84;5113649;27;20022;-48
2022/06/28 07:40:15;;;;;;;15.73;4.97;;;;;;;27.46;49.09;93714.00;5113466;28;20098;-46
2022/06/28 07:42:42;;;;;;;6.40;3.40;;;;;;;27.95;45.91;93716.41;5113499;28;20028;-50
2022/06/28 07:45:08;;;;;;;8.93;3.75;;;;;;;28.50;44.84;93724.63;5113428;28;20488;-47
2022/06/28 07:47:36;;;;;;;3.60;3.30;;;;;;;29.12;42.69;93731.53;5113284;28;20012;-46
2022/06/28 07:53:06;;;;;;;13.75;4.65;;;;;;;30.08;40.77;93735.66;5090235;28;20129;-45
2022/06/28 07:55:32;;;;;;;4.03;3.63;;;;;;;30.16;42.02;93735.84;5089338;28;20544;-46
2022/06/28 07:57:58;;;;;;;5.00;3.65;;;;;;;30.69;39.59;93724.34;5100321;28;20031;-46
2022/06/28 08:00:24;;;;;;;4.40;4.00;;;;;;;31.55;39.97;93737.00;5112857;28;20532;-48
2022/06/28 08:02:50;;;;;;;2.90;2.70;;;;;;;31.94;36.66;93744.94;5113085;28;20019;-48
2022/06/28 08:05:16;;;;;;;4.70;3.28;;;;;;;31.53;36.59;93736.97;5113035;28;20461;-48
2022/06/28 08:07:42;;;;;;;3.13;2.60;;;;;;;32.11;34.98;93732.41;5112736;28;20020;-46
2022/06/28 08:10:08;;;;;;;3.40;2.70;;;;;;;32.63;33.60;93726.88;5112895;28;20023;-49
2022/06/28 08:12:34;;;;;;;3.20;2.47;;;;;;;32.79;33.34;93729.97;5112590;28;20519;-48
2022/06/28 08:15:00;;;;;;;3.70;2.70;;;;;;;32.74;33.72;93727.75;5112537;27;20019;-46
2022/06/28 08:17:25;;;;;;;4.35;2.20;;;;;;;32.40;33.46;93722.16;5112132;28;20050;-48
2022/06/28 08:19:51;;;;;;;4.47;2.80;;;;;;;32.58;33.44;93725.38;5112397;28;20092;-47
2022/06/28 08:22:17;;;;;;;2.72;2.53;;;;;;;32.63;32.56;93723.28;5112456;28;20023;-48
2022/06/28 08:24:42;;;;;;;2.83;2.53;;;;;;;32.58;30.85;93716.78;5111670;28;20084;-47
2022/06/28 08:27:08;;;;;;;6.78;2.50;;;;;;;32.53;32.11;93715.28;5112042;28;20059;-45
2022/06/28 08:29:34;;;;;;;2.58;2.38;;;;;;;32.34;32.15;93715.63;5112598;28;20027;-45
2022/06/28 08:32:01;;;;;;;3.75;2.70;;;;;;;32.54;32.17;93713.13;5111487;28;20476;-47
2022/06/28 08:34:26;;;;;;;2.90;2.70;;;;;;;32.47;32.46;93718.03;5112154;28;20026;-45
2022/06/28 08:36:52;;;;;;;3.08;2.88;;;;;;;32.77;32.89;93724.22;5112120;28;20031;-47
2022/06/28 08:39:17;;;;;;;5.88;3.42;;;;;;;32.17;31.66;93720.34;5112049;28;20014;-50
2022/06/28 08:41:43;;;;;;;4.68;2.80;;;;;;;32.00;33.05;93722.19;5112358;28;20035;-45
2022/06/28 08:44:13;;;;;;;2.90;2.60;;;;;;;32.16;31.39;93719.63;5110712;28;20024;-45
2022/06/28 08:46:39;;;;;;;2.33;2.13;;;;;;;32.19;32.54;93723.25;5111002;28;20043;-46
2022/06/28 08:49:28;;;;;;;5.07;2.80;;;;;;;32.55;31.51;93723.16;5111842;28;20020;-47
2022/06/28 08:51:55;;;;;;;3.55;2.38;;;;;;;33.01;32.22;93729.63;5110687;28;20020;-45
2022/06/28 08:54:24;;;;;;;4.07;2.70;;;;;;;32.99;32.45;93728.81;5111766;28;20504;-46
2022/06/28 08:56:50;;;;;;;4.13;2.33;;;;;;;33.02;30.22;93733.19;5110877;28;20140;-48
2022/06/28 08:59:15;;;;;;;3.58;2.50;;;;;;;33.05;30.52;93723.25;5111640;28;20020;-47
2022/06/28 09:01:41;;;;;;;3.78;2.60;;;;;;;33.17;29.44;93726.25;5111698;28;20024;-45
2022/06/28 09:04:08;;;;;;;2.22;2.03;;;;;;;33.27;29.73;93732.13;5111219;28;20026;-46
2022/06/28 09:06:37;;;;;;;5.75;2.95;;;;;;;33.06;30.96;93727.53;5110806;28;20034;-48
2022/06/28 09:09:03;;;;;;;2.75;2.55;;;;;;;33.08;29.86;93725.44;5111738;28;20065;-44
2022/06/28 09:11:44;;;;;;;6.13;2.78;;;;;;;33.60;30.75;93722.56;5111416;28;20112;-47
2022/06/28 09:14:34;;;;;;;4.32;3.20;;;;;;;34.47;30.08;93723.50;5111744;28;20019;-45
2022/06/28 09:17:23;;;;;;;3.58;2.97;;;;;;;34.34;29.36;93729.13;5105485;28;20085;-44
2022/06/28 09:19:54;;;;;;;3.20;2.90;;;;;;;34.43;30.12;93721.31;5111254;28;20044;-46
2022/06/28 09:22:34;;;;;;;4.05;3.17;;;;;;;34.22;29.60;93728.25;5111598;28;20081;-49
2022/06/28 09:25:02;;;;;;;3.03;2.72;;;;;;;33.53;29.94;93724.63;5110260;28;20080;-46
2022/06/28 09:27:37;;;;;;;3.60;2.70;;;;;;;33.42;28.42;93722.28;5111146;28;20526;-43
2022/06/28 09:30:05;;;;;;;3.63;3.33;;;;;;;33.58;30.12;93714.69;5111400;28;20099;-43
2022/06/28 09:32:33;;;;;;;4.32;3.00;;;;;;;33.94;28.90;93722.25;5111409;28;20020;-43
2022/06/28 09:34:59;;;;;;;3.37;3.07;;;;;;;33.63;30.94;93720.44;5111338;28;20027;-43
2022/06/28 09:37:35;;;;;;;6.85;3.60;;;;;;;34.01;28.92;93729.50;5111359;28;20047;-44
2022/06/28 09:40:14;;;;;;;3.90;3.53;;;;;;;34.28;30.44;93729.06;5110888;28;20046;-42
2022/06/28 09:42:41;;;;;;;7.20;6.50;;;;;;;34.70;30.06;93728.00;5110136;28;20028;-42
2022/06/28 09:45:07;;;;;;;5.70;5.25;;;;;;;33.66;30.25;93722.63;5111199;28;20054;-44
2022/06/28 09:47:33;;;;;;;6.05;5.47;;;;;;;32.76;30.36;93714.22;5110704;28;20493;-46
2022/06/28 09:49:59;;;;;;;6.43;5.90;;;;;;;33.00;32.24;93710.28;5110876;28;20023;-46
2022/06/28 09:52:28;;;;;;;5.85;4.97;;;;;;;33.45;31.27;93710.19;5110805;28;20027;-45
2022/06/28 09:54:56;;;;;;;32.70;29.58;;;;;;;33.25;29.04;93709.91;5110760;28;20019;-47
2022/06/28 09:57:21;;;;;;;47.92;43.35;;;;;;;33.73;30.85;93706.22;5110429;28;20024;-48
2022/06/28 09:59:49;;;;;;;22.15;19.88;;;;;;;34.07;30.90;93713.09;5110045;28;20020;-45
2022/06/28 10:02:16;;;;;;;15.10;13.90;;;;;;;34.82;29.29;93705.88;5111036;28;20412;-46
2022/06/28 10:04:42;;;;;;;5.10;4.70;;;;;;;35.05;26.23;93696.00;5110714;28;20020;-47
2022/06/28 10:07:11;;;;;;;3.75;3.45;;;;;;;35.45;28.50;93701.25;5109476;28;20050;-45
2022/06/28 10:09:38;;;;;;;6.13;5.40;;;;;;;35.50;28.27;93705.59;5109695;28;20028;-47
2022/06/28 10:15:01;;;;;;;3.63;3.33;;;;;;;35.86;27.79;93716.53;5108311;28;20035;-46
2022/06/28 10:17:36;;;;;;;4.05;3.75;;;;;;;36.11;28.04;93712.31;5110569;28;20034;-49
2022/06/28 10:20:07;;;;;;;5.22;3.33;;;;;;;36.57;27.73;93714.53;5110836;28;20043;-48
2022/06/28 10:22:32;;;;;;;5.55;3.17;;;;;;;37.06;27.36;93709.50;5109633;28;20045;-46
2022/06/28 10:24:59;;;;;;;4.75;3.35;;;;;;;36.73;25.17;93703.06;5109222;28;20432;-47
2022/06/28 10:27:26;;;;;;;3.50;3.20;;;;;;;37.08;25.72;93706.63;5110701;28;20027;-48
2022/06/28 10:29:58;;;;;;;4.53;3.90;;;;;;;36.77;24.96;93703.03;5109472;28;20024;-46
2022/06/28 10:32:43;;;;;;;3.95;3.60;;;;;;;36.08;25.94;93704.41;5110680;28;20028;-49
2022/06/28 10:35:09;;;;;;;4.32;3.83;;;;;;;36.25;26.64;93700.84;5110655;28;20027;-45
2022/06/28 10:37:35;;;;;;;3.58;3.28;;;;;;;36.76;24.74;93690.09;5110311;28;20507;-46
2022/06/28 10:40:28;;;;;;;6.32;4.22;;;;;;;35.82;26.08;93687.78;5109422;28;20027;-47
2022/06/28 10:42:54;;;;;;;3.58;3.28;;;;;;;36.50;28.00;93687.22;5109750;28;20021;-44
2022/06/28 10:45:23;;;;;;;4.30;3.00;;;;;;;37.21;27.14;93676.34;5110142;28;20016;-46
2022/06/28 10:48:09;;;;;;;4.43;2.83;;;;;;;37.68;27.06;93686.31;5110138;28;20030;-46
2022/06/28 10:50:56;;;;;;;4.78;2.60;;;;;;;37.77;24.31;93681.94;5110275;28;20031;-46
2022/06/28 10:53:23;;;;;;;5.05;2.80;;;;;;;38.17;25.37;93683.19;5110509;28;20377;-45
2022/06/28 10:56:10;;;;;;;3.35;2.65;;;;;;;39.09;25.12;93679.63;5113149;28;20031;-45
2022/06/28 10:59:03;;;;;;;3.58;2.42;;;;;;;38.80;25.16;93672.66;5113945;28;20028;-47
2022/06/28 11:01:44;;;;;;;4.18;3.20;;;;;;;38.99;24.85;93679.69;5113185;28;20030;-45
2022/06/28 11:04:18;;;;;;;3.83;2.90;;;;;;;38.08;28.41;93671.00;5113920;28;20603;-46
2022/06/28 11:06:48;;;;;;;3.45;2.83;;;;;;;37.30;27.52;93668.41;5113909;28;20059;-47
2022/06/28 11:09:49;;;;;;;3.30;3.00;;;;;;;36.97;25.59;93656.97;5113769;28;20055;-45
2022/06/28 11:12:19;;;;;;;2.65;2.35;;;;;;;36.76;26.60;93644.03;5112632;28;20023;-46
2022/06/28 11:14:54;;;;;;;2.78;2.50;;;;;;;37.06;25.83;93651.91;5114037;28;20028;-47
2022/06/28 11:17:32;;;;;;;4.47;2.42;;;;;;;36.94;25.73;93655.56;5113255;28;20023;-45
2022/06/28 11:20:21;;;;;;;4.15;2.88;;;;;;;36.89;28.13;93662.03;5113955;27;20062;-47
2022/06/28 11:22:48;;;;;;;6.10;3.42;;;;;;;36.61;28.09;93659.88;5112586;28;20035;-48
2022/06/28 11:25:15;;;;;;;6.22;3.40;;;;;;;36.03;27.82;93636.84;5113801;28;20110;-47
2022/06/28 11:27:53;;;;;;;3.33;3.00;;;;;;;34.47;28.39;93660.41;5113351;28;20046;-47
2022/06/28 11:30:20;;;;;;;4.43;3.83;;;;;;;32.72;31.36;93659.84;5113727;28;20092;-46
2022/06/28 11:32:50;;;;;;;6.53;3.70;;;;;;;31.59;34.40;93660.00;5112566;28;20071;-45
2022/06/28 11:35:20;;;;;;;4.70;3.72;;;;;;;30.67;36.13;93662.34;5113630;28;20058;-45
2022/06/28 11:37:51;;;;;;;5.00;4.15;;;;;;;29.94;38.03;93657.03;5113652;28;20407;-47
2022/06/28 11:40:18;;;;;;;5.60;3.67;;;;;;;29.56;37.06;93655.28;5112451;28;20462;-47
2022/06/28 11:42:45;;;;;;;3.50;3.20;;;;;;;29.96;37.21;93659.19;5112919;28;20024;-44
2022/06/28 11:45:12;;;;;;;3.67;3.35;;;;;;;30.34;38.16;93660.13;5113479;28;20529;-46
2022/06/28 11:47:41;;;;;;;4.13;3.17;;;;;;;30.51;35.98;93659.13;5112301;28;20160;-46
2022/06/28 11:50:09;;;;;;;3.20;2.90;;;;;;;30.65;36.77;93658.72;5112709;27;20738;-49
2022/06/28 11:52:56;;;;;;;3.50;3.20;;;;;;;30.87;36.48;93659.22;5113015;28;20031;-45
2022/06/28 11:55:47;;;;;;;2.75;2.53;;;;;;;30.84;34.47;93657.72;5111853;28;20038;-46
2022/06/28 11:58:26;;;;;;;5.60;2.72;;;;;;;30.19;34.09;93664.03;5112920;28;20098;-45